Time;durP1;ratioP1;P1;durP2;ratioP2;P2;SDS_P1;SDS_P2;PMS_P1;PMS_P2;Temp;Humidity;BMP_temperature;BMP_pressure;BME280_temperature;BME280_humidity;BME280_pressure;Samples;Min_cycle;Max_cycle;Signal;HPM_P1;HPM_P2
2022/06/17 00:00:58;;;;;;;9.68;5.63;;;27.00;99.90;;;;;;5092793;28;20209;-70
2022/06/17 00:03:28;;;;;;;5.68;4.85;;;26.80;99.90;;;;;;5092519;28;20237;-70
2022/06/17 00:05:57;;;;;;;6.78;4.72;;;26.90;99.90;;;;;;5092240;28;20205;-72
2022/06/17 00:08:28;;;;;;;6.40;4.50;;;26.80;99.90;;;;;;5091123;28;20221;-70
2022/06/17 00:10:55;;;;;;;5.30;4.13;;;26.80;99.90;;;;;;5091872;28;20205;-69
2022/06/17 00:13:23;;;;;;;9.98;4.25;;;26.90;99.90;;;;;;5091451;28;20213;-71
2022/06/17 00:15:50;;;;;;;8.80;5.35;;;26.90;99.90;;;;;;5092238;28;20221;-71
2022/06/17 00:18:19;;;;;;;5.90;4.13;;;26.80;99.90;;;;;;5091551;28;20201;-70
2022/06/17 00:20:48;;;;;;;8.15;5.22;;;26.70;99.90;;;;;;5091996;28;20205;-70
2022/06/17 00:23:18;;;;;;;9.05;4.85;;;26.60;99.90;;;;;;5091374;28;20233;-70
2022/06/17 00:25:48;;;;;;;6.40;4.30;;;26.60;99.90;;;;;;5091559;28;20669;-70
2022/06/17 00:28:20;;;;;;;5.85;5.07;;;26.60;99.90;;;;;;5079195;28;20202;-70
2022/06/17 00:30:48;;;;;;;6.55;4.70;;;26.60;99.90;;;;;;5090776;28;20255;-69
2022/06/17 00:33:16;;;;;;;12.68;5.40;;;26.60;99.90;;;;;;5091333;28;20247;-69
2022/06/17 00:35:45;;;;;;;9.95;4.70;;;26.50;99.90;;;;;;5091595;28;20275;-72
2022/06/17 00:38:16;;;;;;;7.22;4.47;;;26.40;99.90;;;;;;5091043;28;20201;-69
2022/06/17 00:40:44;;;;;;;9.02;5.63;;;26.30;99.90;;;;;;5091377;28;20277;-69
2022/06/17 00:43:27;;;;;;;8.13;4.60;;;26.20;99.90;;;;;;5091293;28;20298;-69
2022/06/17 00:46:05;;;;;;;11.48;4.55;;;26.20;99.90;;;;;;5091465;28;20259;-69
2022/06/17 00:48:37;;;;;;;6.22;5.05;;;26.30;99.90;;;;;;5091352;28;20612;-69
2022/06/17 00:51:13;;;;;;;7.80;5.35;;;26.30;99.90;;;;;;5090933;28;20209;-71
2022/06/17 00:53:45;;;;;;;12.77;5.80;;;26.10;99.90;;;;;;5091084;28;20234;-76
2022/06/17 00:56:17;;;;;;;8.52;4.80;;;26.10;99.90;;;;;;5090795;28;20206;-73
2022/06/17 00:59:05;;;;;;;7.22;4.38;;;26.10;99.90;;;;;;5091144;28;20205;-72
2022/06/17 01:01:41;;;;;;;8.98;5.40;;;26.00;99.90;;;;;;5091371;28;20260;-72
2022/06/17 01:04:10;;;;;;;8.18;4.55;;;26.00;99.90;;;;;;5090695;28;20785;-72
2022/06/17 01:06:41;;;;;;;6.25;4.88;;;26.10;99.90;;;;;;5062899;28;20228;-74
2022/06/17 01:11:58;;;;;;;11.15;4.45;;;26.00;99.90;;;;;;5066310;28;20216;-71
2022/06/17 01:14:29;;;;;;;7.85;4.82;;;26.00;99.90;;;;;;5090616;28;20205;-71
2022/06/17 01:16:58;;;;;;;8.77;5.35;;;26.00;99.90;;;;;;5091271;28;20289;-72
2022/06/17 01:19:30;;;;;;;7.90;6.05;;;25.90;99.90;;;;;;5090356;28;20222;-71
2022/06/17 01:22:05;;;;;;;12.43;6.07;;;26.00;99.90;;;;;;5091163;28;20209;-69
2022/06/17 01:24:34;;;;;;;5.13;4.35;;;25.90;99.90;;;;;;5090916;28;20236;-70
2022/06/17 01:27:02;;;;;;;11.20;6.47;;;25.90;99.90;;;;;;5088518;28;20637;-69
2022/06/17 01:29:29;;;;;;;6.97;5.22;;;25.90;99.90;;;;;;5079324;28;20258;-69
2022/06/17 01:31:56;;;;;;;8.13;5.20;;;25.90;99.90;;;;;;5090746;28;20252;-70
2022/06/17 01:34:24;;;;;;;8.10;5.35;;;25.70;99.90;;;;;;5090405;28;20206;-70
2022/06/17 01:36:53;;;;;;;11.18;5.50;;;25.70;99.90;;;;;;5090463;28;20213;-69
2022/06/17 01:39:19;;;;;;;10.07;5.30;;;25.60;99.90;;;;;;5090291;28;20263;-71
2022/06/17 01:41:49;;;;;;;9.63;4.75;;;25.60;99.90;;;;;;5090528;28;20209;-69
2022/06/17 01:44:19;;;;;;;9.43;5.38;;;25.40;99.90;;;;;;5090197;28;20224;-72
2022/06/17 01:46:51;;;;;;;7.93;4.60;;;25.40;99.90;;;;;;5090522;28;20213;-70
2022/06/17 01:49:21;;;;;;;7.35;4.88;;;25.40;99.90;;;;;;5090125;28;20201;-71
2022/06/17 01:52:02;;;;;;;10.02;5.25;;;25.50;99.90;;;;;;5090845;28;20246;-70
2022/06/17 01:54:33;;;;;;;6.65;4.68;;;25.40;99.90;;;;;;5090762;28;20258;-70
2022/06/17 01:57:04;;;;;;;10.95;5.93;;;25.40;99.90;;;;;;5088674;28;20255;-70
2022/06/17 01:59:35;;;;;;;9.85;5.47;;;25.40;99.90;;;;;;5069061;28;20283;-69
2022/06/17 02:02:03;;;;;;;13.70;6.28;;;25.30;99.90;;;;;;5070170;28;20210;-71
2022/06/17 02:04:36;;;;;;;7.68;5.18;;;25.30;99.90;;;;;;5070383;28;20238;-69
2022/06/17 02:07:10;;;;;;;7.60;4.75;;;25.20;99.90;;;;;;5069584;28;20267;-70
2022/06/17 02:09:37;;;;;;;6.55;4.82;;;25.10;99.90;;;;;;5069936;28;20346;-70
2022/06/17 02:12:07;;;;;;;10.32;6.32;;;25.00;99.90;;;;;;5070055;28;20268;-69
2022/06/17 02:14:35;;;;;;;13.93;6.68;;;24.90;99.90;;;;;;5069896;28;20633;-70
2022/06/17 02:17:02;;;;;;;10.70;6.50;;;25.00;99.90;;;;;;5070208;28;20205;-70
2022/06/17 02:19:33;;;;;;;11.88;6.38;;;25.10;99.90;;;;;;5070569;28;20682;-70
2022/06/17 02:22:06;;;;;;;12.10;5.57;;;25.00;99.90;;;;;;5069980;28;20213;-70
2022/06/17 02:24:33;;;;;;;9.60;5.60;;;25.00;99.90;;;;;;5070054;28;20775;-69
2022/06/17 02:27:03;;;;;;;10.32;5.68;;;25.00;99.90;;;;;;5069837;28;20670;-69
2022/06/17 02:29:33;;;;;;;8.45;5.40;;;24.90;99.90;;;;;;5070395;28;20206;-70
2022/06/17 02:32:04;;;;;;;9.75;5.18;;;24.80;99.90;;;;;;5073500;28;20206;-69
2022/06/17 02:34:31;;;;;;;8.05;5.53;;;24.90;99.90;;;;;;5073520;28;20267;-69
2022/06/17 02:37:06;;;;;;;10.43;5.18;;;24.80;99.90;;;;;;5074008;28;20210;-70
2022/06/17 02:39:35;;;;;;;14.90;5.60;;;24.90;99.90;;;;;;5073850;28;20201;-70
2022/06/17 02:42:02;;;;;;;12.32;6.18;;;24.90;99.90;;;;;;5073050;28;20267;-70
2022/06/17 02:44:36;;;;;;;9.80;5.90;;;24.90;99.90;;;;;;5073666;28;20791;-70
2022/06/17 02:47:04;;;;;;;11.45;6.15;;;24.80;99.90;;;;;;5072862;28;20271;-71
2022/06/17 02:49:35;;;;;;;14.10;6.20;;;24.70;99.90;;;;;;5073280;28;20210;-70
2022/06/17 02:52:07;;;;;;;11.88;5.68;;;24.70;99.90;;;;;;5073193;28;20719;-72
2022/06/17 02:54:39;;;;;;;14.88;6.80;;;24.70;99.90;;;;;;5073349;28;20256;-71
2022/06/17 02:57:09;;;;;;;8.38;5.70;;;24.60;99.90;;;;;;5073075;28;20231;-70
2022/06/17 02:59:42;;;;;;;9.10;5.55;;;24.50;99.90;;;;;;5073615;28;20198;-70
2022/06/17 03:02:16;;;;;;;10.63;6.05;;;24.60;99.90;;;;;;5073073;28;20210;-70
2022/06/17 03:04:45;;;;;;;8.35;5.32;;;24.60;99.90;;;;;;5059919;28;20319;-71
2022/06/17 03:07:15;;;;;;;9.18;6.88;;;24.60;99.90;;;;;;5072881;28;20339;-70
2022/06/17 03:09:43;;;;;;;10.30;5.82;;;24.50;99.90;;;;;;5072909;28;20206;-69
2022/06/17 03:12:13;;;;;;;6.82;5.38;;;24.50;99.90;;;;;;5072551;28;20202;-71
2022/06/17 03:14:46;;;;;;;12.63;6.13;;;24.50;99.90;;;;;;5072826;28;20203;-70
2022/06/17 03:17:16;;;;;;;6.57;5.25;;;24.50;99.90;;;;;;5072521;28;20685;-70
2022/06/17 03:19:46;;;;;;;11.35;5.90;;;24.50;99.90;;;;;;5072499;28;20232;-69
2022/06/17 03:22:14;;;;;;;9.98;5.90;;;24.50;99.90;;;;;;5072576;28;20202;-70
2022/06/17 03:24:47;;;;;;;8.73;5.18;;;24.50;99.90;;;;;;5072537;28;20249;-70
2022/06/17 03:27:18;;;;;;;7.57;4.72;;;24.40;99.90;;;;;;5070762;28;20260;-70
2022/06/17 03:29:49;;;;;;;7.72;4.80;;;24.20;99.90;;;;;;5072613;28;20252;-70
2022/06/17 03:32:21;;;;;;;8.93;5.85;;;24.30;99.90;;;;;;5072202;28;20339;-69
2022/06/17 03:34:51;;;;;;;6.75;4.20;;;24.20;99.90;;;;;;5072766;28;20635;-69
2022/06/17 03:37:23;;;;;;;11.20;5.00;;;24.30;99.90;;;;;;5071961;28;20202;-69
2022/06/17 03:39:54;;;;;;;8.48;4.95;;;24.30;99.90;;;;;;5072253;28;20276;-69
2022/06/17 03:42:26;;;;;;;10.00;5.70;;;24.20;99.90;;;;;;5071782;28;20621;-70
2022/06/17 03:45:01;;;;;;;8.43;5.20;;;24.00;99.90;;;;;;5071945;28;20586;-69
2022/06/17 03:47:37;;;;;;;9.80;5.32;;;23.90;99.90;;;;;;5072418;28;20205;-70
2022/06/17 03:50:16;;;;;;;8.20;6.45;;;23.90;99.90;;;;;;5071882;28;20205;-71
2022/06/17 03:52:48;;;;;;;10.23;5.25;;;23.90;99.90;;;;;;5070513;28;20238;-71
2022/06/17 03:55:16;;;;;;;6.35;4.38;;;23.90;99.90;;;;;;5073205;28;20582;-70
2022/06/17 03:57:46;;;;;;;12.73;5.25;;;23.90;99.90;;;;;;5073192;28;20214;-70
2022/06/17 04:00:20;;;;;;;8.35;4.95;;;24.10;99.90;;;;;;5086397;28;20205;-70
2022/06/17 04:02:48;;;;;;;7.88;4.50;;;24.10;99.90;;;;;;5071767;28;20194;-71
2022/06/17 04:05:17;;;;;;;7.30;5.03;;;23.90;99.90;;;;;;5070763;28;20624;-69
2022/06/17 04:07:44;;;;;;;7.43;5.20;;;23.90;99.90;;;;;;5071811;28;20238;-69
2022/06/17 04:10:17;;;;;;;5.78;4.55;;;23.80;99.90;;;;;;5060663;28;20269;-67
2022/06/17 04:12:47;;;;;;;10.75;4.72;;;23.90;99.90;;;;;;5079841;28;20264;-69
2022/06/17 04:15:31;;;;;;;9.80;5.20;;;23.90;99.90;;;;;;5072191;28;20224;-69
2022/06/17 04:17:58;;;;;;;7.10;5.65;;;24.00;99.90;;;;;;5088155;28;20753;-69
2022/06/17 04:20:37;;;;;;;9.65;5.65;;;23.90;99.90;;;;;;5090381;28;20210;-68
2022/06/17 04:23:10;;;;;;;6.03;4.93;;;23.80;99.90;;;;;;5089018;28;20251;-69
2022/06/17 04:25:41;;;;;;;12.18;5.80;;;23.90;99.90;;;;;;5090948;28;20712;-70
2022/06/17 04:28:12;;;;;;;8.30;5.25;;;24.00;99.90;;;;;;5089836;28;20209;-70
2022/06/17 04:30:44;;;;;;;10.27;6.03;;;23.80;99.90;;;;;;5081245;28;20210;-70
2022/06/17 04:33:23;;;;;;;13.57;6.80;;;23.60;99.90;;;;;;5072140;28;20202;-70
2022/06/17 04:35:53;;;;;;;10.95;5.72;;;23.70;99.90;;;;;;5072349;28;21103;-69
2022/06/17 04:38:20;;;;;;;13.43;7.75;;;23.60;99.90;;;;;;5073570;28;20255;-70
2022/06/17 04:40:54;;;;;;;11.25;6.50;;;23.40;99.90;;;;;;5072709;28;20214;-70
2022/06/17 04:43:27;;;;;;;8.93;6.00;;;23.40;99.90;;;;;;5074556;28;20216;-69
2022/06/17 04:45:58;;;;;;;9.20;6.35;;;23.60;99.90;;;;;;5072722;28;20222;-69
2022/06/17 04:48:25;;;;;;;9.80;6.25;;;23.80;99.90;;;;;;5076456;28;20202;-69
2022/06/17 04:50:52;;;;;;;9.32;6.03;;;23.80;99.90;;;;;;5074382;28;20209;-69
2022/06/17 04:53:19;;;;;;;15.18;7.50;;;23.90;99.90;;;;;;5076682;28;20201;-69
2022/06/17 04:55:47;;;;;;;12.57;6.55;;;23.80;99.90;;;;;;5075163;28;20205;-69
2022/06/17 04:58:21;;;;;;;13.77;7.55;;;23.80;99.90;;;;;;5076373;28;20263;-70
2022/06/17 05:00:51;;;;;;;12.40;7.05;;;23.80;99.90;;;;;;5075253;28;20217;-70
2022/06/17 05:03:20;;;;;;;10.50;6.15;;;23.60;99.90;;;;;;5080781;28;20201;-70
2022/06/17 05:05:47;;;;;;;11.43;6.95;;;23.60;99.90;;;;;;5073986;28;20308;-70
2022/06/17 05:08:22;;;;;;;11.73;7.00;;;23.80;99.90;;;;;;5072969;28;20264;-71
2022/06/17 05:10:54;;;;;;;11.43;6.90;;;23.90;99.90;;;;;;5084093;28;20232;-71
2022/06/17 05:13:25;;;;;;;13.73;7.50;;;23.90;99.90;;;;;;5062961;28;20210;-70
2022/06/17 05:15:53;;;;;;;13.88;7.18;;;24.10;99.90;;;;;;5072587;28;20210;-71
2022/06/17 05:18:22;;;;;;;10.65;7.03;;;24.20;99.90;;;;;;5059553;28;20202;-70
2022/06/17 05:20:49;;;;;;;7.93;6.30;;;24.30;99.90;;;;;;5072975;28;20206;-70
2022/06/17 05:23:17;;;;;;;12.52;7.07;;;24.30;99.90;;;;;;5073762;28;20206;-70
2022/06/17 05:25:47;;;;;;;14.75;7.93;;;24.30;99.90;;;;;;5072616;28;20795;-70
2022/06/17 05:28:18;;;;;;;16.77;6.15;;;24.40;99.90;;;;;;5075530;28;20755;-70
2022/06/17 05:30:51;;;;;;;10.57;7.25;;;24.40;99.90;;;;;;5073052;28;20751;-69
2022/06/17 05:33:19;;;;;;;13.23;6.15;;;24.50;99.90;;;;;;5075629;28;20584;-70
2022/06/17 05:35:48;;;;;;;10.13;6.70;;;24.60;99.90;;;;;;5075036;28;20210;-70
2022/06/17 05:38:16;;;;;;;11.70;7.05;;;24.70;99.90;;;;;;5079134;28;20633;-70
2022/06/17 05:40:43;;;;;;;9.68;6.55;;;24.70;99.90;;;;;;5075949;28;20218;-70
2022/06/17 05:43:12;;;;;;;7.88;6.28;;;24.80;99.90;;;;;;5081730;28;20202;-70
2022/06/17 05:45:38;;;;;;;6.82;5.43;;;24.70;99.90;;;;;;5069971;28;20229;-70
2022/06/17 05:48:06;;;;;;;16.17;7.75;;;24.90;99.90;;;;;;5082910;28;20201;-70
2022/06/17 05:50:33;;;;;;;7.63;6.63;;;25.00;99.90;;;;;;5077442;28;20563;-70
2022/06/17 05:53:03;;;;;;;9.82;7.47;;;25.00;99.90;;;;;;5083393;28;20202;-70
2022/06/17 05:55:32;;;;;;;16.00;7.15;;;25.10;99.90;;;;;;5079708;28;20203;-70
2022/06/17 05:58:00;;;;;;;21.95;7.15;;;25.10;99.90;;;;;;5084142;28;20246;-69
2022/06/17 06:00:29;;;;;;;9.98;5.75;;;25.30;99.90;;;;;;5070627;28;20214;-70
2022/06/17 06:02:57;;;;;;;11.93;7.55;;;25.20;99.90;;;;;;5069982;28;20202;-70
2022/06/17 06:05:26;;;;;;;12.82;7.38;;;25.30;99.90;;;;;;5070836;28;20233;-70
2022/06/17 06:07:53;;;;;;;13.60;7.60;;;25.40;99.90;;;;;;5074278;28;20243;-69
2022/06/17 06:10:23;;;;;;;11.25;7.05;;;25.50;99.90;;;;;;5071496;28;20206;-70
2022/06/17 06:13:01;;;;;;;11.80;6.00;;;25.50;99.90;;;;;;5072850;28;20293;-70
2022/06/17 06:15:32;;;;;;;7.38;5.85;;;25.60;99.90;;;;;;5076785;28;20210;-70
2022/06/17 06:17:59;;;;;;;12.73;6.80;;;25.80;99.90;;;;;;5067575;28;20264;-68
2022/06/17 06:20:26;;;;;;;14.05;7.38;;;25.90;99.90;;;;;;5078004;28;20206;-71
2022/06/17 06:22:53;;;;;;;12.60;6.47;;;26.00;99.90;;;;;;5061045;28;20276;-68
2022/06/17 06:25:21;;;;;;;9.27;6.35;;;26.10;99.90;;;;;;5073059;28;20770;-70
2022/06/17 06:27:48;;;;;;;8.75;6.28;;;26.20;99.90;;;;;;5073569;28;20257;-68
2022/06/17 06:30:19;;;;;;;10.20;5.57;;;26.20;99.90;;;;;;5073529;28;20214;-72
2022/06/17 06:32:51;;;;;;;16.88;6.28;;;26.20;99.90;;;;;;5073714;28;20220;-71
2022/06/17 06:35:19;;;;;;;14.65;6.47;;;26.20;99.90;;;;;;5073067;28;20590;-71
2022/06/17 06:37:46;;;;;;;17.58;7.25;;;26.30;99.90;;;;;;5073129;28;20662;-69
2022/06/17 06:40:13;;;;;;;13.45;6.50;;;26.30;99.90;;;;;;5073162;28;20630;-68
2022/06/17 06:42:42;;;;;;;12.02;6.55;;;26.40;99.90;;;;;;5073056;28;20206;-67
2022/06/17 06:45:14;;;;;;;10.88;5.72;;;26.50;99.90;;;;;;5073320;28;20234;-68
2022/06/17 06:47:41;;;;;;;15.40;6.85;;;26.50;99.90;;;;;;5062066;28;20246;-68
2022/06/17 06:50:14;;;;;;;15.18;6.00;;;26.60;99.90;;;;;;5075556;28;20202;-69
2022/06/17 06:52:41;;;;;;;13.88;5.72;;;26.60;99.90;;;;;;5072512;28;20978;-76
2022/06/17 06:55:08;;;;;;;8.93;6.32;;;26.70;99.90;;;;;;5078653;28;20211;-74
2022/06/17 06:57:35;;;;;;;10.27;5.85;;;26.70;99.90;;;;;;5072754;28;20210;-74
2022/06/17 07:00:06;;;;;;;13.82;7.25;;;26.90;99.90;;;;;;5084871;28;20223;-73
2022/06/17 07:02:33;;;;;;;9.73;7.55;;;27.10;99.90;;;;;;5079349;28;20301;-73
2022/06/17 07:05:00;;;;;;;13.85;6.05;;;27.20;99.90;;;;;;5078365;28;20233;-73
2022/06/17 07:07:27;;;;;;;10.13;5.38;;;27.30;99.90;;;;;;5072261;28;20206;-72
2022/06/17 07:09:54;;;;;;;6.93;5.15;;;27.40;99.90;;;;;;5070337;28;20202;-70
2022/06/17 07:12:21;;;;;;;12.55;5.20;;;27.40;99.90;;;;;;5067528;28;20272;-71
2022/06/17 07:14:48;;;;;;;9.40;5.45;;;27.40;99.90;;;;;;5073813;28;20646;-72
2022/06/17 07:17:17;;;;;;;9.10;6.18;;;27.60;99.90;;;;;;5071864;28;20251;-72
2022/06/17 07:19:43;;;;;;;13.23;6.05;;;27.70;99.90;;;;;;5075584;28;20264;-69
2022/06/17 07:22:10;;;;;;;9.18;5.55;;;27.90;99.90;;;;;;5074435;28;20210;-76
2022/06/17 07:24:37;;;;;;;12.95;6.03;;;27.90;99.90;;;;;;5077506;28;20266;-78
2022/06/17 07:27:05;;;;;;;7.57;5.72;;;28.00;99.90;;;;;;5076237;28;20213;-74
2022/06/17 07:29:32;;;;;;;11.20;5.22;;;28.10;99.90;;;;;;5069016;28;20212;-74
2022/06/17 07:32:00;;;;;;;12.15;6.85;;;28.20;99.90;;;;;;5071027;28;20211;-73
2022/06/17 07:34:28;;;;;;;10.73;6.05;;;28.30;99.90;;;;;;5079879;28;20284;-73
2022/06/17 07:39:55;;;;;;;10.75;5.68;;;28.60;99.90;;;;;;5081930;28;20573;-75
2022/06/17 07:42:23;;;;;;;8.75;4.63;;;28.50;99.90;;;;;;5072129;28;20206;-78
2022/06/17 07:44:49;;;;;;;7.53;5.43;;;28.80;99.90;;;;;;5084835;28;20284;-73
2022/06/17 07:47:19;;;;;;;9.13;5.03;;;28.80;99.90;;;;;;5079413;28;20630;-75
2022/06/17 07:49:47;;;;;;;8.35;4.50;;;28.80;99.90;;;;;;5071817;28;20202;-80
2022/06/17 07:52:14;;;;;;;6.82;5.13;;;29.00;99.90;;;;;;5073186;28;20268;-78
2022/06/17 07:54:42;;;;;;;6.32;4.95;;;29.20;99.90;;;;;;5086430;28;20198;-72
2022/06/17 07:57:11;;;;;;;6.32;4.38;;;29.70;99.90;;;;;;5083345;28;20632;-71
2022/06/17 07:59:38;;;;;;;9.70;5.43;;;29.90;99.90;;;;;;5082576;28;20203;-73
2022/06/17 08:02:06;;;;;;;10.80;5.40;;;29.70;99.90;;;;;;5075511;28;20260;-80
2022/06/17 08:04:34;;;;;;;9.77;4.78;;;29.90;99.90;;;;;;5071097;28;20202;-84
2022/06/17 08:07:03;;;;;;;7.18;4.90;;;30.30;99.90;;;;;;5072684;28;20279;-81
2022/06/17 08:09:30;;;;;;;5.60;4.60;;;31.00;99.90;;;;;;5071552;28;20256;-77
2022/06/17 08:11:58;;;;;;;7.82;5.35;;;31.00;99.90;;;;;;5072708;28;20604;-74
2022/06/17 08:14:25;;;;;;;9.60;5.45;;;30.60;99.90;;;;;;5074076;28;20673;-75
2022/06/17 08:16:52;;;;;;;7.97;5.53;;;30.90;99.90;;;;;;5074082;28;20206;-80
2022/06/17 08:19:19;;;;;;;12.88;6.25;;;30.60;99.90;;;;;;5072451;28;20284;-76
2022/06/17 08:21:46;;;;;;;12.27;5.72;;;30.30;99.90;;;;;;5074437;28;20206;-69
2022/06/17 08:24:15;;;;;;;12.48;5.63;;;30.40;99.90;;;;;;5077224;28;20220;-68
2022/06/17 08:26:42;;;;;;;11.82;6.13;;;30.60;99.90;;;;;;5076332;28;20261;-68
2022/06/17 08:29:09;;;;;;;7.82;5.50;;;30.50;99.90;;;;;;5077079;28;20263;-68
2022/06/17 08:31:36;;;;;;;12.85;6.85;;;30.80;99.90;;;;;;5079208;28;20202;-68
2022/06/17 08:34:03;;;;;;;6.80;5.32;;;30.90;99.90;;;;;;5077189;28;20198;-76
2022/06/17 08:36:30;;;;;;;8.25;5.20;;;31.30;99.90;;;;;;5081339;28;20626;-79
2022/06/17 08:39:01;;;;;;;10.50;5.63;;;31.40;99.90;;;;;;5071471;28;20615;-76
2022/06/17 08:41:32;;;;;;;10.68;4.80;;;31.30;99.90;;;;;;5083007;28;20304;-79
2022/06/17 08:44:23;;;;;;;9.27;5.78;;;31.60;99.90;;;;;;5078850;28;20202;-73
2022/06/17 08:47:10;;;;;;;9.57;5.78;;;32.20;99.90;;;;;;5081891;28;20247;-76
2022/06/17 08:50:18;;;;;;;15.60;5.55;;;32.00;99.90;;;;;;5084242;28;20205;-76
2022/06/17 08:53:10;;;;;;;6.65;5.38;;;32.10;99.90;;;;;;5081676;28;20201;-72
2022/06/17 08:55:42;;;;;;;7.78;4.78;;;32.70;99.90;;;;;;5081112;28;20210;-74
2022/06/17 08:58:21;;;;;;;8.70;4.97;;;32.90;99.90;;;;;;5087182;28;20204;-71
2022/06/17 09:00:57;;;;;;;8.80;5.10;;;32.90;99.90;;;;;;5083354;28;20672;-73
2022/06/17 09:03:40;;;;;;;6.22;5.32;;;32.80;99.90;;;;;;5067462;28;20213;-72
2022/06/17 09:06:19;;;;;;;5.50;5.00;;;33.10;99.90;;;;;;5073698;28;20225;-70
2022/06/17 09:09:09;;;;;;;8.43;4.88;;;33.30;99.90;;;;;;5070784;28;20217;-71
2022/06/17 09:11:42;;;;;;;11.80;5.78;;;33.70;99.90;;;;;;5057717;28;20665;-75
2022/06/17 09:14:28;;;;;;;10.77;5.55;;;33.70;99.90;;;;;;5072518;28;20217;-75
2022/06/17 09:17:02;;;;;;;7.22;5.13;;;34.10;99.90;;;;;;5062095;28;20847;-71
2022/06/17 09:19:34;;;;;;;7.97;5.22;;;33.50;99.90;;;;;;5073988;28;20285;-70
2022/06/17 09:22:08;;;;;;;6.72;5.30;;;34.00;99.90;;;;;;5073178;28;20623;-71
2022/06/17 09:24:40;;;;;;;7.88;5.20;;;34.70;99.90;;;;;;5075766;28;20694;-72
2022/06/17 09:27:11;;;;;;;10.60;5.55;;;35.70;99.90;;;;;;5073773;28;20229;-70
2022/06/17 09:29:45;;;;;;;11.13;5.70;;;37.00;99.90;;;;;;5076285;28;20234;-73
2022/06/17 09:32:21;;;;;;;10.73;6.18;;;37.30;99.90;;;;;;5074477;28;20209;-70
2022/06/17 09:34:53;;;;;;;10.10;5.90;;;38.90;99.90;;;;;;5073849;28;20208;-72
2022/06/17 09:37:25;;;;;;;6.15;5.57;;;39.40;99.90;;;;;;5075199;28;20681;-70
2022/06/17 09:39:55;;;;;;;7.25;5.43;;;41.40;99.90;;;;;;5070988;28;20197;-71
2022/06/17 09:42:29;;;;;;;7.20;6.05;;;41.20;99.90;;;;;;5065079;28;20205;-70
2022/06/17 09:45:03;;;;;;;9.25;6.00;;;42.30;99.90;;;;;;5065314;28;20681;-69
2022/06/17 09:47:35;;;;;;;5.47;4.95;;;43.60;99.90;;;;;;5061940;28;20289;-69
2022/06/17 09:50:09;;;;;;;8.93;5.25;;;42.00;99.90;;;;;;5075242;28;20684;-69
2022/06/17 09:52:41;;;;;;;5.95;4.80;;;40.30;99.90;;;;;;5069973;28;20205;-69
2022/06/17 09:55:16;;;;;;;11.80;6.25;;;40.30;99.90;;;;;;5081967;28;20196;-68
2022/06/17 09:57:46;;;;;;;9.60;6.20;;;40.80;99.90;;;;;;5078255;28;20266;-69
2022/06/17 10:00:20;;;;;;;7.80;5.75;;;40.20;99.90;;;;;;5070600;28;20201;-69
2022/06/17 10:02:50;;;;;;;7.38;6.07;;;40.90;99.90;;;;;;5069888;28;20275;-69
2022/06/17 10:05:32;;;;;;;6.47;5.80;;;41.60;99.90;;;;;;5069717;28;20205;-69
2022/06/17 10:08:07;;;;;;;9.60;6.00;;;41.90;99.90;;;;;;5070246;28;20209;-69
2022/06/17 10:10:47;;;;;;;8.27;4.72;;;41.00;99.90;;;;;;5069880;28;20255;-68
2022/06/17 10:13:26;;;;;;;11.63;5.53;;;41.90;99.90;;;;;;5070386;28;20205;-72
2022/06/17 10:19:01;;;;;;;5.78;5.07;;;42.50;99.90;;;;;;5061595;28;20351;-74
2022/06/17 10:21:42;;;;;;;5.72;5.05;;;42.50;99.90;;;;;;5063785;28;20201;-72
2022/06/17 10:24:18;;;;;;;8.35;4.72;;;42.40;99.90;;;;;;5072029;28;20209;-76
2022/06/17 10:27:01;;;;;;;7.15;5.43;;;43.70;99.90;;;;;;5071429;28;20262;-71
2022/06/17 10:29:51;;;;;;;9.18;5.93;;;42.40;99.90;;;;;;5074110;28;20205;-71
2022/06/17 10:32:19;;;;;;;9.02;7.25;;;44.60;99.90;;;;;;5062550;28;20213;-70
2022/06/17 10:34:51;;;;;;;9.70;5.70;;;42.60;99.90;;;;;;5075280;28;20325;-71
2022/06/17 10:37:18;;;;;;;9.80;7.10;;;43.50;99.90;;;;;;5064120;28;20210;-70
2022/06/17 10:39:47;;;;;;;14.23;6.70;;;40.50;99.90;;;;;;5069550;28;20661;-69
2022/06/17 10:42:16;;;;;;;9.52;5.63;;;38.70;99.90;;;;;;5069651;28;20217;-69
2022/06/17 10:44:57;;;;;;;9.90;6.38;;;37.60;99.90;;;;;;5069791;28;20222;-69
2022/06/17 10:48:05;;;;;;;7.75;4.97;;;37.10;99.90;;;;;;5069119;28;20331;-70
2022/06/17 10:50:33;;;;;;;12.25;5.60;;;37.20;99.90;;;;;;5068151;28;20209;-71
2022/06/17 10:53:11;;;;;;;10.15;5.47;;;36.60;99.90;;;;;;5072967;28;20767;-69
2022/06/17 10:55:40;;;;;;;9.02;4.13;;;36.50;99.90;;;;;;5072840;28;20744;-71
2022/06/17 10:58:11;;;;;;;8.95;6.15;;;36.20;99.90;;;;;;5073107;28;20231;-70
2022/06/17 11:00:52;;;;;;;7.90;4.68;;;36.30;99.90;;;;;;5072531;28;20206;-71
2022/06/17 11:03:25;;;;;;;5.38;4.35;;;36.40;99.90;;;;;;5072800;28;20288;-70
2022/06/17 11:06:18;;;;;;;7.90;4.75;;;36.10;99.90;;;;;;5072801;28;20213;-69
2022/06/17 11:08:55;;;;;;;8.27;4.47;;;36.10;99.90;;;;;;5073616;28;20217;-70
2022/06/17 11:14:40;;;;;;;5.75;4.47;;;35.60;99.90;;;;;;5066965;28;20613;-69
2022/06/17 11:17:17;;;;;;;5.90;4.55;;;35.30;99.90;;;;;;5064354;28;20260;-72
2022/06/17 11:19:48;;;;;;;7.80;4.40;;;35.20;99.90;;;;;;5070462;28;20622;-68
2022/06/17 11:22:22;;;;;;;6.50;4.88;;;35.30;99.90;;;;;;5072952;28;20214;-69
2022/06/17 11:24:54;;;;;;;12.15;5.35;;;35.20;99.90;;;;;;5072967;28;20247;-69
2022/06/17 11:27:29;;;;;;;7.25;4.30;;;35.00;99.90;;;;;;5073439;28;20234;-70
2022/06/17 11:30:12;;;;;;;7.03;4.32;;;35.50;99.90;;;;;;5076128;28;20197;-68
2022/06/17 11:32:45;;;;;;;7.03;4.90;;;35.60;99.90;;;;;;5074464;28;20742;-69
2022/06/17 11:35:28;;;;;;;7.32;4.65;;;35.50;99.90;;;;;;5074333;28;20628;-69
2022/06/17 11:37:57;;;;;;;7.63;5.15;;;35.80;99.90;;;;;;5077419;28;20216;-69
2022/06/17 11:40:25;;;;;;;8.48;4.97;;;36.10;99.90;;;;;;5075516;28;20253;-68
2022/06/17 11:42:55;;;;;;;5.60;4.35;;;36.60;99.90;;;;;;5078135;28;20719;-70
2022/06/17 11:45:25;;;;;;;5.18;4.30;;;36.60;99.90;;;;;;5077922;28;20271;-69
2022/06/17 11:47:59;;;;;;;4.40;3.83;;;36.20;99.90;;;;;;5079274;28;20712;-67
2022/06/17 11:50:31;;;;;;;4.65;3.40;;;36.20;99.90;;;;;;5078803;28;20209;-68
2022/06/17 11:53:06;;;;;;;6.75;4.68;;;36.40;99.90;;;;;;5080927;28;20680;-71
2022/06/17 11:55:40;;;;;;;7.72;3.85;;;36.60;99.90;;;;;;5079604;28;20193;-71
2022/06/17 11:58:07;;;;;;;11.98;3.95;;;36.70;99.90;;;;;;5082513;28;20204;-71
2022/06/17 12:00:46;;;;;;;10.68;4.75;;;36.70;99.90;;;;;;5080726;28;20202;-70
2022/06/17 12:03:14;;;;;;;6.80;4.32;;;36.70;99.90;;;;;;5077979;28;20207;-70
2022/06/17 12:05:43;;;;;;;10.25;4.30;;;37.10;99.90;;;;;;5060586;28;20267;-69
2022/06/17 12:08:23;;;;;;;7.63;4.30;;;37.40;99.90;;;;;;5056443;28;20233;-71
2022/06/17 12:10:51;;;;;;;5.22;4.35;;;36.90;99.90;;;;;;5071555;28;20588;-68
2022/06/17 12:13:31;;;;;;;8.77;4.00;;;37.20;99.90;;;;;;5070441;28;20205;-68
2022/06/17 12:16:08;;;;;;;5.88;4.18;;;37.10;99.90;;;;;;5068052;28;20676;-72
2022/06/17 12:18:48;;;;;;;8.43;4.00;;;37.30;99.90;;;;;;5071828;28;20300;-69
2022/06/17 12:21:29;;;;;;;9.07;4.18;;;36.80;99.90;;;;;;5078018;28;20344;-70
2022/06/17 12:24:05;;;;;;;6.13;4.63;;;37.20;99.90;;;;;;5079622;28;20201;-70
2022/06/17 12:26:38;;;;;;;9.75;4.10;;;37.30;99.90;;;;;;5078545;28;20233;-70
2022/06/17 12:29:12;;;;;;;10.63;3.90;;;37.40;99.90;;;;;;5070961;28;20649;-69
2022/06/17 12:32:14;;;;;;;7.57;4.50;;;37.50;99.90;;;;;;5070241;28;21013;-71
2022/06/17 12:34:54;;;;;;;8.02;3.92;;;37.30;99.90;;;;;;5069483;28;20711;-68
2022/06/17 12:37:55;;;;;;;9.57;4.13;;;37.40;99.90;;;;;;5070518;28;20209;-68
2022/06/17 12:40:27;;;;;;;7.20;4.78;;;37.70;99.90;;;;;;5065065;28;20228;-68
2022/06/17 12:43:21;;;;;;;10.10;4.38;;;37.60;99.90;;;;;;5070769;28;20620;-69
2022/06/17 12:45:56;;;;;;;7.25;4.32;;;37.70;99.90;;;;;;5061912;28;20201;-69
2022/06/17 12:48:33;;;;;;;5.90;3.70;;;37.80;99.90;;;;;;5070445;28;20236;-70
2022/06/17 12:54:18;;;;;;;9.63;4.65;;;38.20;99.90;;;;;;5070142;28;20634;-68
2022/06/17 12:57:10;;;;;;;11.05;4.35;;;38.30;99.90;;;;;;5070728;28;20213;-69
2022/06/17 12:59:50;;;;;;;12.65;4.07;;;38.20;99.90;;;;;;5069935;28;20311;-68
2022/06/17 13:02:21;;;;;;;7.05;3.33;;;38.10;99.90;;;;;;5070364;28;20661;-69
2022/06/17 13:05:19;;;;;;;8.40;4.93;;;37.80;99.90;;;;;;5070563;28;20213;-69
2022/06/17 13:08:01;;;;;;;12.60;3.92;;;37.90;99.90;;;;;;5070908;28;20278;-69
2022/06/17 13:11:21;;;;;;;16.70;5.43;;;38.20;99.90;;;;;;5069725;28;20209;-68
2022/06/17 13:14:29;;;;;;;7.60;4.30;;;38.00;99.90;;;;;;5065712;28;20213;-70
2022/06/17 13:17:28;;;;;;;12.10;5.35;;;38.10;99.90;;;;;;5070884;28;20213;-70
2022/06/17 13:20:02;;;;;;;14.95;4.80;;;37.90;99.90;;;;;;5070407;28;20209;-71
2022/06/17 13:22:36;;;;;;;9.27;4.50;;;38.30;99.90;;;;;;5070127;28;20210;-70
2022/06/17 13:28:20;;;;;;;6.93;3.90;;;38.40;99.90;;;;;;5068680;28;20763;-68